createdAt,value
2023-01-19T00:03:53.879Z,0.00
2023-01-19T00:08:57.267Z,-0.18
2023-01-19T00:14:01.306Z,-0.25
2023-01-19T00:19:10.852Z,-0.27
2023-01-19T00:24:12.296Z,-0.18
2023-01-19T00:29:23.630Z,-0.30
2023-01-19T00:34:27.451Z,-0.22
2023-01-19T00:39:38.002Z,-0.28
2023-01-19T00:44:41.898Z,-0.27
2023-01-19T00:49:48.581Z,-0.24
2023-01-19T00:54:50.824Z,-0.23
2023-01-19T00:59:53.657Z,-0.29
2023-01-19T01:04:55.091Z,-0.40
2023-01-19T01:10:02.481Z,-0.41
2023-01-19T01:15:05.900Z,-0.38
2023-01-19T01:20:07.935Z,-0.34
2023-01-19T01:25:09.544Z,-0.30
2023-01-19T01:35:41.963Z,-0.41
2023-01-19T01:40:48.368Z,-0.44
2023-01-19T01:45:49.897Z,-0.48
2023-01-19T01:50:59.263Z,-0.54
2023-01-19T01:56:03.478Z,-0.36
2023-01-19T02:01:10.532Z,-0.25
2023-01-19T02:06:13.027Z,-0.12
2023-01-19T02:11:24.731Z,-0.06
2023-01-19T02:16:26.429Z,0.01
2023-01-19T02:21:38.672Z,0.11
2023-01-19T02:26:47.726Z,0.00
2023-01-19T02:31:53.885Z,0.27
2023-01-19T02:37:01.431Z,0.27
2023-01-19T02:47:46.872Z,0.31
2023-01-19T02:52:49.603Z,0.23
2023-01-19T02:58:20.425Z,0.17
2023-01-19T03:03:53.063Z,0.10
2023-01-19T03:09:20.921Z,0.18
2023-01-19T03:14:28.745Z,0.12
2023-01-19T03:19:37.585Z,0.15
2023-01-19T03:24:44.960Z,0.09
2023-01-19T03:30:00.648Z,0.21
2023-01-19T03:35:07.105Z,0.25
2023-01-19T03:40:10.037Z,0.24
2023-01-19T03:45:13.807Z,0.31
2023-01-19T03:50:25.434Z,0.34
2023-01-19T03:55:27.090Z,0.42
2023-01-19T04:00:31.343Z,0.55
2023-01-19T04:05:33.402Z,0.52
2023-01-19T04:10:35.073Z,0.67
2023-01-19T04:15:40.040Z,0.68
2023-01-19T04:20:41.738Z,0.71
2023-01-19T04:25:43.395Z,0.67
2023-01-19T04:31:07.894Z,0.74
2023-01-19T04:36:09.476Z,0.88
2023-01-19T04:41:11.168Z,0.90
2023-01-19T04:46:12.804Z,0.98
2023-01-19T04:51:39.101Z,1.04
2023-01-19T04:56:40.922Z,0.99
2023-01-19T05:01:42.697Z,1.12
2023-01-19T05:06:44.229Z,1.11
2023-01-19T05:11:45.760Z,1.13
2023-01-19T05:16:47.260Z,1.07
2023-01-19T05:21:48.776Z,1.10
2023-01-19T05:26:50.359Z,1.12
2023-01-19T05:31:53.157Z,1.08
2023-01-19T05:36:57.650Z,1.07
2023-01-19T05:41:59.115Z,0.99
2023-01-19T05:47:00.626Z,0.80
2023-01-19T05:52:02.266Z,0.70
2023-01-19T05:57:03.671Z,0.64
2023-01-19T06:02:05.247Z,0.52
2023-01-19T06:07:14.357Z,0.39
2023-01-19T06:17:44.270Z,0.32
2023-01-19T06:22:53.457Z,0.29
2023-01-19T06:27:55.148Z,0.22
2023-01-19T06:32:59.190Z,0.30
2023-01-19T06:38:01.116Z,0.19
2023-01-19T06:43:02.974Z,0.22
2023-01-19T06:48:16.714Z,0.25
2023-01-19T06:53:21.336Z,0.12
2023-01-19T06:58:22.959Z,0.20
2023-01-19T07:03:24.390Z,0.20
2023-01-19T07:08:25.961Z,0.16
2023-01-19T07:13:28.252Z,0.24
2023-01-19T07:18:29.738Z,0.13
2023-01-19T07:23:31.323Z,0.23
2023-01-19T07:28:33.265Z,0.22
2023-01-19T07:33:34.761Z,0.29
2023-01-19T07:38:37.387Z,0.25
2023-01-19T07:43:48.169Z,0.20
2023-01-19T07:48:49.755Z,0.24
2023-01-19T07:53:53.074Z,0.35
2023-01-19T07:58:54.521Z,0.38
2023-01-19T08:04:04.628Z,0.40
2023-01-19T08:37:00.208Z,0.78
2023-01-19T08:49:10.199Z,0.81
2023-01-19T09:12:12.554Z,1.07
2023-01-19T09:17:23.367Z,1.11
2023-01-19T09:33:08.892Z,1.15
2023-01-19T09:50:20.019Z,1.44
2023-01-19T09:55:28.341Z,1.55
2023-01-19T10:00:31.319Z,1.56
2023-01-19T10:05:41.376Z,1.65
2023-01-19T10:16:53.078Z,1.46
2023-01-19T10:27:42.054Z,1.53
2023-01-19T10:32:59.834Z,1.40
2023-01-19T10:38:03.437Z,1.45
2023-01-19T10:49:13.765Z,1.76
2023-01-19T11:00:34.970Z,2.17
2023-01-19T11:05:48.987Z,2.28
2023-01-19T11:11:46.429Z,2.38
2023-01-19T11:33:44.277Z,2.93
2023-01-19T11:38:47.448Z,3.04
2023-01-19T11:43:54.820Z,3.03
2023-01-19T11:49:05.585Z,3.02
2023-01-19T11:54:21.086Z,3.27
2023-01-19T11:59:22.722Z,3.79
2023-01-19T12:04:38.343Z,4.19
2023-01-19T12:09:48.647Z,4.53
2023-01-19T12:15:24.136Z,4.43
2023-01-19T12:20:54.520Z,4.49
2023-01-19T12:26:06.545Z,4.12
2023-01-19T12:31:10.565Z,3.96
2023-01-19T12:36:30.446Z,4.23
2023-01-19T12:41:38.604Z,4.34
2023-01-19T12:47:00.235Z,4.03
2023-01-19T12:52:31.478Z,4.06
2023-01-19T12:57:49.354Z,4.01
2023-01-19T13:02:54.848Z,4.13
2023-01-19T13:08:02.392Z,4.54
2023-01-19T13:13:25.788Z,4.46
2023-01-19T13:18:33.140Z,4.05
2023-01-19T13:23:49.953Z,3.64
2023-01-19T13:28:57.900Z,3.71
2023-01-19T13:34:01.820Z,3.62
2023-01-19T13:39:06.435Z,3.60
2023-01-19T13:44:43.163Z,3.48
2023-01-19T13:49:46.431Z,3.75
2023-01-19T13:55:04.211Z,3.74
2023-01-19T14:00:16.105Z,3.63
2023-01-19T14:05:35.263Z,3.96
2023-01-19T14:10:55.914Z,4.08
2023-01-19T14:16:00.749Z,3.98
2023-01-19T14:21:10.789Z,4.00
2023-01-19T14:26:46.160Z,3.61
2023-01-19T14:31:50.403Z,3.69
2023-01-19T14:36:51.903Z,3.45
2023-01-19T14:41:55.131Z,3.37
2023-01-19T14:46:57.438Z,3.36
2023-01-19T14:52:01.683Z,3.24
2023-01-19T14:57:03.163Z,3.23
2023-01-19T15:02:04.705Z,3.34
2023-01-19T15:07:06.862Z,3.35
2023-01-19T15:12:13.375Z,3.28
2023-01-19T15:17:22.604Z,3.21
2023-01-19T15:22:25.892Z,3.37
2023-01-19T15:27:29.283Z,3.45
2023-01-19T15:32:30.765Z,3.24
2023-01-19T15:37:32.235Z,3.15
2023-01-19T15:42:33.683Z,3.16
2023-01-19T15:47:35.273Z,2.99
2023-01-19T15:52:36.763Z,2.97
2023-01-19T15:57:38.464Z,2.91
2023-01-19T16:02:40.093Z,2.93
2023-01-19T16:07:41.621Z,2.86
2023-01-19T16:12:46.742Z,2.80
2023-01-19T16:17:48.255Z,2.81
2023-01-19T16:22:49.751Z,2.80
2023-01-19T16:27:51.390Z,2.74
2023-01-19T16:32:52.837Z,2.73
2023-01-19T16:37:54.635Z,2.59
2023-01-19T16:42:55.993Z,2.49
2023-01-19T16:47:59.988Z,2.54
2023-01-19T16:53:01.581Z,2.55
2023-01-19T16:58:03.048Z,2.41
2023-01-19T17:03:04.479Z,2.54
2023-01-19T17:08:06.049Z,2.54
2023-01-19T17:13:07.441Z,2.55
2023-01-19T17:18:08.908Z,2.55
2023-01-19T17:23:12.634Z,2.54
2023-01-19T17:28:13.995Z,2.54
2023-01-19T17:33:15.444Z,2.39
2023-01-19T17:38:17.201Z,2.40
2023-01-19T17:43:18.603Z,2.41
2023-01-19T17:48:19.961Z,2.29
2023-01-19T17:53:21.384Z,2.28
2023-01-19T17:58:22.978Z,2.30
2023-01-19T18:03:24.777Z,2.34
2023-01-19T18:08:26.142Z,2.31
2023-01-19T18:13:28.572Z,2.32
2023-01-19T18:18:30.067Z,2.36
2023-01-19T18:23:31.792Z,2.31
2023-01-19T18:28:33.731Z,2.30
2023-01-19T18:33:35.413Z,2.30
2023-01-19T18:38:38.474Z,2.27
2023-01-19T18:43:40.207Z,2.06
2023-01-19T18:48:41.833Z,2.09
2023-01-19T18:53:43.986Z,1.98
2023-01-19T18:58:45.535Z,1.95
2023-01-19T19:03:47.204Z,1.97
2023-01-19T19:08:50.797Z,1.83
2023-01-19T19:13:54.969Z,1.87
2023-01-19T19:18:59.092Z,1.75
2023-01-19T19:24:00.538Z,1.76
2023-01-19T19:29:02.015Z,1.78
2023-01-19T19:34:03.652Z,1.77
2023-01-19T19:39:05.630Z,1.75
2023-01-19T19:44:07.141Z,1.68
2023-01-19T19:49:08.837Z,1.57
2023-01-19T19:54:10.525Z,1.46
2023-01-19T19:59:11.991Z,1.39
2023-01-19T20:04:13.638Z,1.31
2023-01-19T20:09:16.183Z,1.21
2023-01-19T20:14:17.636Z,1.08
2023-01-19T20:19:19.017Z,1.01
2023-01-19T20:24:20.743Z,0.87
2023-01-19T20:29:22.192Z,0.90
2023-01-19T20:34:27.337Z,0.88
2023-01-19T20:39:29.043Z,0.96
2023-01-19T20:44:30.561Z,0.92
2023-01-19T20:49:32.354Z,0.90
2023-01-19T20:54:34.666Z,0.98
2023-01-19T20:59:36.175Z,0.99
2023-01-19T21:04:39.120Z,0.98
2023-01-19T21:09:40.477Z,0.99
2023-01-19T21:14:42.176Z,0.94
2023-01-19T21:24:49.071Z,0.91
2023-01-19T21:29:50.519Z,0.87
2023-01-19T21:34:52.033Z,0.82
2023-01-19T21:39:53.418Z,0.78
2023-01-19T21:49:56.332Z,0.64
2023-01-19T21:54:57.854Z,0.62
2023-01-19T21:59:59.325Z,0.55
2023-01-19T22:05:01.261Z,0.54
2023-01-19T22:10:03.046Z,0.47
2023-01-19T22:15:04.953Z,0.48
2023-01-19T22:20:07.106Z,0.40
2023-01-19T22:25:09.725Z,0.39
2023-01-19T22:30:11.284Z,0.39
2023-01-19T22:35:12.954Z,0.38
2023-01-19T22:40:14.928Z,0.40
2023-01-19T22:45:16.395Z,0.43
2023-01-19T22:50:17.971Z,0.33
2023-01-19T22:55:19.348Z,0.35
2023-01-19T23:00:21.632Z,0.35
2023-01-19T23:05:23.083Z,0.29
2023-01-19T23:10:24.651Z,0.30
2023-01-19T23:15:26.118Z,0.24
2023-01-19T23:20:27.515Z,0.25
2023-01-19T23:25:31.330Z,0.18
2023-01-19T23:30:32.773Z,0.17
2023-01-19T23:35:34.776Z,0.09
2023-01-19T23:40:36.164Z,0.07
2023-01-19T23:45:37.801Z,0.05
2023-01-19T23:50:40.281Z,0.07
2023-01-19T23:55:41.991Z,0.08
